sensor_id;sensor_type;location;lat;lon;timestamp;temperature;humidity
4293;DHT22;2160;51.172;6.808;2022-10-13T04:02:49;14.80;99.90
4293;DHT22;2160;51.172;6.808;2022-10-13T04:05:16;14.70;99.90
4293;DHT22;2160;51.172;6.808;2022-10-13T04:07:43;14.80;99.90
4293;DHT22;2160;51.172;6.808;2022-10-13T04:10:17;14.70;99.90
4293;DHT22;2160;51.172;6.808;2022-10-13T04:12:47;14.60;99.90
4293;DHT22;2160;51.172;6.808;2022-10-13T04:15:14;14.70;99.90
4293;DHT22;2160;51.172;6.808;2022-10-13T04:17:42;14.60;99.90
4293;DHT22;2160;51.172;6.808;2022-10-13T04:20:10;14.70;99.90
4293;DHT22;2160;51.172;6.808;2022-10-13T04:22:37;14.80;99.90
4293;DHT22;2160;51.172;6.808;2022-10-13T04:25:06;14.70;99.90
4293;DHT22;2160;51.172;6.808;2022-10-13T04:27:33;14.80;99.90
4293;DHT22;2160;51.172;6.808;2022-10-13T04:30:03;14.80;99.90
4293;DHT22;2160;51.172;6.808;2022-10-13T04:32:30;14.80;99.90
4293;DHT22;2160;51.172;6.808;2022-10-13T04:35:01;14.70;99.90
4293;DHT22;2160;51.172;6.808;2022-10-13T04:37:30;14.70;99.90
4293;DHT22;2160;51.172;6.808;2022-10-13T04:39:57;14.80;99.90
4293;DHT22;2160;51.172;6.808;2022-10-13T04:42:24;14.80;99.90
4293;DHT22;2160;51.172;6.808;2022-10-13T04:44:50;14.80;99.90
4293;DHT22;2160;51.172;6.808;2022-10-13T04:47:20;14.90;99.90
4293;DHT22;2160;51.172;6.808;2022-10-13T04:49:47;14.90;99.90
4293;DHT22;2160;51.172;6.808;2022-10-13T04:52:14;14.90;99.90
4293;DHT22;2160;51.172;6.808;2022-10-13T04:54:42;14.90;99.90
4293;DHT22;2160;51.172;6.808;2022-10-13T04:57:09;14.90;99.90
4293;DHT22;2160;51.172;6.808;2022-10-13T04:59:36;14.80;99.90
4293;DHT22;2160;51.172;6.808;2022-10-13T05:02:03;14.80;99.90
4293;DHT22;2160;51.172;6.808;2022-10-13T05:04:30;14.90;99.90
4293;DHT22;2160;51.172;6.808;2022-10-13T05:06:57;14.80;99.90
4293;DHT22;2160;51.172;6.808;2022-10-13T05:09:24;15.00;99.90
4293;DHT22;2160;51.172;6.808;2022-10-13T05:11:52;14.90;99.90
4293;DHT22;2160;51.172;6.808;2022-10-13T05:14:20;14.80;99.90
4293;DHT22;2160;51.172;6.808;2022-10-13T05:16:47;14.80;99.90
4293;DHT22;2160;51.172;6.808;2022-10-13T05:19:14;14.90;99.90
4293;DHT22;2160;51.172;6.808;2022-10-13T05:21:41;14.80;99.90
4293;DHT22;2160;51.172;6.808;2022-10-13T05:24:08;14.80;99.90
4293;DHT22;2160;51.172;6.808;2022-10-13T05:26:39;14.70;99.90
4293;DHT22;2160;51.172;6.808;2022-10-13T05:29:07;14.70;99.90
4293;DHT22;2160;51.172;6.808;2022-10-13T05:31:35;14.70;99.90
4293;DHT22;2160;51.172;6.808;2022-10-13T05:34:02;14.80;99.90
4293;DHT22;2160;51.172;6.808;2022-10-13T05:36:31;14.70;99.90
4293;DHT22;2160;51.172;6.808;2022-10-13T05:39:00;14.70;99.90
4293;DHT22;2160;51.172;6.808;2022-10-13T05:41:27;14.80;99.90
4293;DHT22;2160;51.172;6.808;2022-10-13T05:43:57;14.80;99.90
4293;DHT22;2160;51.172;6.808;2022-10-13T05:46:25;14.70;99.90
4293;DHT22;2160;51.172;6.808;2022-10-13T05:48:52;14.70;99.90
4293;DHT22;2160;51.172;6.808;2022-10-13T05:51:22;14.80;99.90
4293;DHT22;2160;51.172;6.808;2022-10-13T05:53:54;14.80;99.90
4293;DHT22;2160;51.172;6.808;2022-10-13T05:56:23;14.90;99.90
4293;DHT22;2160;51.172;6.808;2022-10-13T05:58:54;14.80;99.90
4293;DHT22;2160;51.172;6.808;2022-10-13T06:01:27;14.90;99.90
4293;DHT22;2160;51.172;6.808;2022-10-13T06:03:59;14.90;99.90
4293;DHT22;2160;51.172;6.808;2022-10-13T06:06:26;14.90;99.90
4293;DHT22;2160;51.172;6.808;2022-10-13T06:08:57;14.90;99.90
4293;DHT22;2160;51.172;6.808;2022-10-13T06:11:24;14.90;99.90
4293;DHT22;2160;51.172;6.808;2022-10-13T06:13:51;14.90;99.90
4293;DHT22;2160;51.172;6.808;2022-10-13T06:16:18;15.00;99.90
4293;DHT22;2160;51.172;6.808;2022-10-13T06:18:46;15.30;99.90
4293;DHT22;2160;51.172;6.808;2022-10-13T06:21:13;15.10;99.90
4293;DHT22;2160;51.172;6.808;2022-10-13T06:23:40;15.00;99.90
4293;DHT22;2160;51.172;6.808;2022-10-13T06:26:07;14.90;99.90
4293;DHT22;2160;51.172;6.808;2022-10-13T06:28:35;14.90;99.90
4293;DHT22;2160;51.172;6.808;2022-10-13T06:31:04;15.00;99.90
4293;DHT22;2160;51.172;6.808;2022-10-13T06:33:32;14.90;99.90
4293;DHT22;2160;51.172;6.808;2022-10-13T06:36:02;14.90;99.90
4293;DHT22;2160;51.172;6.808;2022-10-13T06:38:29;14.90;99.90
4293;DHT22;2160;51.172;6.808;2022-10-13T06:40:59;15.20;99.90
4293;DHT22;2160;51.172;6.808;2022-10-13T06:43:27;15.10;99.90
4293;DHT22;2160;51.172;6.808;2022-10-13T06:45:57;15.10;99.90
4293;DHT22;2160;51.172;6.808;2022-10-13T06:48:27;15.10;99.90
4293;DHT22;2160;51.172;6.808;2022-10-13T06:50:54;15.10;99.90
4293;DHT22;2160;51.172;6.808;2022-10-13T06:53:22;15.20;99.90
4293;DHT22;2160;51.172;6.808;2022-10-13T06:55:49;15.20;99.90
4293;DHT22;2160;51.172;6.808;2022-10-13T06:58:16;15.10;99.90
4293;DHT22;2160;51.172;6.808;2022-10-13T07:00:43;15.10;99.90
4293;DHT22;2160;51.172;6.808;2022-10-13T07:03:10;15.20;99.90
4293;DHT22;2160;51.172;6.808;2022-10-13T07:05:37;15.10;99.90
4293;DHT22;2160;51.172;6.808;2022-10-13T07:08:04;15.00;99.90
4293;DHT22;2160;51.172;6.808;2022-10-13T07:10:33;15.00;99.90
4293;DHT22;2160;51.172;6.808;2022-10-13T07:13:00;15.00;99.90
4293;DHT22;2160;51.172;6.808;2022-10-13T07:15:27;15.10;99.90
4293;DHT22;2160;51.172;6.808;2022-10-13T07:17:54;15.10;99.90
4293;DHT22;2160;51.172;6.808;2022-10-13T07:20:21;15.40;99.90
4293;DHT22;2160;51.172;6.808;2022-10-13T07:22:49;15.20;99.90
4293;DHT22;2160;51.172;6.808;2022-10-13T07:25:19;15.30;99.90
4293;DHT22;2160;51.172;6.808;2022-10-13T07:27:47;15.30;99.90
4293;DHT22;2160;51.172;6.808;2022-10-13T07:30:14;15.30;99.90
4293;DHT22;2160;51.172;6.808;2022-10-13T07:32:42;15.30;99.90
4293;DHT22;2160;51.172;6.808;2022-10-13T07:35:10;15.30;99.90
4293;DHT22;2160;51.172;6.808;2022-10-13T07:37:38;15.20;99.90
4293;DHT22;2160;51.172;6.808;2022-10-13T07:40:07;15.20;99.90
4293;DHT22;2160;51.172;6.808;2022-10-13T07:42:34;15.30;99.90
4293;DHT22;2160;51.172;6.808;2022-10-13T07:45:03;15.20;99.90
4293;DHT22;2160;51.172;6.808;2022-10-13T07:47:30;15.30;99.90
4293;DHT22;2160;51.172;6.808;2022-10-13T07:49:57;15.30;99.90
4293;DHT22;2160;51.172;6.808;2022-10-13T07:52:24;15.30;99.90
4293;DHT22;2160;51.172;6.808;2022-10-13T07:54:51;15.50;99.90
4293;DHT22;2160;51.172;6.808;2022-10-13T07:57:19;15.50;99.90
4293;DHT22;2160;51.172;6.808;2022-10-13T07:59:45;15.60;99.90
4293;DHT22;2160;51.172;6.808;2022-10-13T08:02:16;15.70;99.90
4293;DHT22;2160;51.172;6.808;2022-10-13T08:04:43;15.70;99.90
4293;DHT22;2160;51.172;6.808;2022-10-13T08:07:09;15.70;99.90
4293;DHT22;2160;51.172;6.808;2022-10-13T08:09:37;15.60;99.90
4293;DHT22;2160;51.172;6.808;2022-10-13T08:12:04;15.60;99.90
4293;DHT22;2160;51.172;6.808;2022-10-13T08:14:31;15.70;99.90
4293;DHT22;2160;51.172;6.808;2022-10-13T08:16:58;15.80;99.90
4293;DHT22;2160;51.172;6.808;2022-10-13T08:19:27;15.90;99.90
4293;DHT22;2160;51.172;6.808;2022-10-13T08:21:54;15.70;99.90
4293;DHT22;2160;51.172;6.808;2022-10-13T08:24:21;15.80;99.90
4293;DHT22;2160;51.172;6.808;2022-10-13T08:26:48;15.80;99.90
4293;DHT22;2160;51.172;6.808;2022-10-13T08:29:16;15.70;99.90
4293;DHT22;2160;51.172;6.808;2022-10-13T08:31:43;15.60;99.90
4293;DHT22;2160;51.172;6.808;2022-10-13T08:34:10;15.70;99.90
4293;DHT22;2160;51.172;6.808;2022-10-13T08:36:39;15.70;99.90
4293;DHT22;2160;51.172;6.808;2022-10-13T08:39:06;15.90;99.90
4293;DHT22;2160;51.172;6.808;2022-10-13T08:41:36;15.90;99.90
4293;DHT22;2160;51.172;6.808;2022-10-13T08:44:05;16.10;99.90
4293;DHT22;2160;51.172;6.808;2022-10-13T08:46:38;16.30;99.90
4293;DHT22;2160;51.172;6.808;2022-10-13T08:49:07;16.10;99.90
4293;DHT22;2160;51.172;6.808;2022-10-13T08:51:34;16.30;99.90
4293;DHT22;2160;51.172;6.808;2022-10-13T08:54:03;16.30;99.90
4293;DHT22;2160;51.172;6.808;2022-10-13T08:56:33;16.30;99.90
4293;DHT22;2160;51.172;6.808;2022-10-13T08:59:03;16.40;99.90
4293;DHT22;2160;51.172;6.808;2022-10-13T09:01:31;16.60;99.90
4293;DHT22;2160;51.172;6.808;2022-10-13T09:04:05;16.20;99.90
4293;DHT22;2160;51.172;6.808;2022-10-13T09:06:43;16.30;99.90
4293;DHT22;2160;51.172;6.808;2022-10-13T09:09:14;16.20;99.90
4293;DHT22;2160;51.172;6.808;2022-10-13T09:11:44;16.20;99.90
4293;DHT22;2160;51.172;6.808;2022-10-13T09:14:19;16.40;99.90
4293;DHT22;2160;51.172;6.808;2022-10-13T09:16:46;16.40;99.90
4293;DHT22;2160;51.172;6.808;2022-10-13T09:19:20;16.40;99.90
4293;DHT22;2160;51.172;6.808;2022-10-13T09:21:48;16.60;99.90
4293;DHT22;2160;51.172;6.808;2022-10-13T09:24:18;16.60;99.90
4293;DHT22;2160;51.172;6.808;2022-10-13T09:26:47;16.80;99.90
4293;DHT22;2160;51.172;6.808;2022-10-13T09:29:17;16.50;99.90
4293;DHT22;2160;51.172;6.808;2022-10-13T09:31:44;16.50;99.90
4293;DHT22;2160;51.172;6.808;2022-10-13T09:34:14;16.60;99.90
4293;DHT22;2160;51.172;6.808;2022-10-13T09:36:55;16.70;99.90
4293;DHT22;2160;51.172;6.808;2022-10-13T09:39:24;16.80;99.90
4293;DHT22;2160;51.172;6.808;2022-10-13T09:42:11;16.80;99.90
4293;DHT22;2160;51.172;6.808;2022-10-13T09:44:42;17.00;99.90
4293;DHT22;2160;51.172;6.808;2022-10-13T09:47:17;16.90;99.90
4293;DHT22;2160;51.172;6.808;2022-10-13T09:49:44;17.30;99.90
4293;DHT22;2160;51.172;6.808;2022-10-13T09:52:15;17.40;99.90
4293;DHT22;2160;51.172;6.808;2022-10-13T09:54:46;17.30;99.90
4293;DHT22;2160;51.172;6.808;2022-10-13T09:57:30;17.50;99.90
4293;DHT22;2160;51.172;6.808;2022-10-13T10:00:06;17.60;99.90
4293;DHT22;2160;51.172;6.808;2022-10-13T10:02:44;17.70;99.90
4293;DHT22;2160;51.172;6.808;2022-10-13T10:05:20;17.70;99.90
4293;DHT22;2160;51.172;6.808;2022-10-13T10:07:50;17.70;99.90
4293;DHT22;2160;51.172;6.808;2022-10-13T10:10:28;18.00;99.90
4293;DHT22;2160;51.172;6.808;2022-10-13T10:13:01;17.90;99.90
4293;DHT22;2160;51.172;6.808;2022-10-13T10:15:35;18.00;99.90
4293;DHT22;2160;51.172;6.808;2022-10-13T10:18:07;18.10;99.90
4293;DHT22;2160;51.172;6.808;2022-10-13T10:20:45;18.20;99.90
4293;DHT22;2160;51.172;6.808;2022-10-13T10:23:19;18.40;99.90
4293;DHT22;2160;51.172;6.808;2022-10-13T10:25:50;18.40;99.90
4293;DHT22;2160;51.172;6.808;2022-10-13T10:28:32;18.40;99.90
4293;DHT22;2160;51.172;6.808;2022-10-13T10:31:08;18.50;99.90
4293;DHT22;2160;51.172;6.808;2022-10-13T10:33:43;18.50;99.90
4293;DHT22;2160;51.172;6.808;2022-10-13T10:36:16;18.60;99.90
4293;DHT22;2160;51.172;6.808;2022-10-13T10:38:49;18.80;99.90
4293;DHT22;2160;51.172;6.808;2022-10-13T10:41:28;18.80;99.90
4293;DHT22;2160;51.172;6.808;2022-10-13T10:43:59;18.70;99.90
4293;DHT22;2160;51.172;6.808;2022-10-13T10:46:31;18.80;99.90
4293;DHT22;2160;51.172;6.808;2022-10-13T10:49:03;18.70;99.90
4293;DHT22;2160;51.172;6.808;2022-10-13T10:51:38;18.70;99.90
4293;DHT22;2160;51.172;6.808;2022-10-13T10:54:19;18.80;99.90
4293;DHT22;2160;51.172;6.808;2022-10-13T10:56:52;18.80;99.90
4293;DHT22;2160;51.172;6.808;2022-10-13T10:59:26;18.90;99.90
4293;DHT22;2160;51.172;6.808;2022-10-13T11:02:11;19.20;99.90
4293;DHT22;2160;51.172;6.808;2022-10-13T11:04:42;19.30;99.90
4293;DHT22;2160;51.172;6.808;2022-10-13T11:07:11;19.40;99.90
4293;DHT22;2160;51.172;6.808;2022-10-13T11:15:48;19.30;99.90
4293;DHT22;2160;51.172;6.808;2022-10-13T11:21:19;19.20;99.90
4293;DHT22;2160;51.172;6.808;2022-10-13T11:23:48;19.20;99.90
4293;DHT22;2160;51.172;6.808;2022-10-13T11:26:27;19.40;99.90
4293;DHT22;2160;51.172;6.808;2022-10-13T11:28:57;19.50;99.90
4293;DHT22;2160;51.172;6.808;2022-10-13T11:31:47;19.50;99.90
4293;DHT22;2160;51.172;6.808;2022-10-13T11:34:27;19.80;99.90
4293;DHT22;2160;51.172;6.808;2022-10-13T11:36:56;20.00;99.90
4293;DHT22;2160;51.172;6.808;2022-10-13T11:42:44;19.60;99.90
4293;DHT22;2160;51.172;6.808;2022-10-13T11:45:25;19.50;99.90
4293;DHT22;2160;51.172;6.808;2022-10-13T11:48:11;19.60;99.90
4293;DHT22;2160;51.172;6.808;2022-10-13T11:50:49;19.30;99.90
4293;DHT22;2160;51.172;6.808;2022-10-13T11:53:22;19.10;99.90
4293;DHT22;2160;51.172;6.808;2022-10-13T11:55:52;19.10;99.90
4293;DHT22;2160;51.172;6.808;2022-10-13T11:58:21;19.10;99.90
4293;DHT22;2160;51.172;6.808;2022-10-13T12:00:53;19.10;99.90
4293;DHT22;2160;51.172;6.808;2022-10-13T12:03:24;19.20;99.90
4293;DHT22;2160;51.172;6.808;2022-10-13T12:05:53;19.20;99.90
4293;DHT22;2160;51.172;6.808;2022-10-13T12:08:21;19.50;99.90
4293;DHT22;2160;51.172;6.808;2022-10-13T12:10:51;19.40;99.90
4293;DHT22;2160;51.172;6.808;2022-10-13T12:13:24;19.40;99.90
4293;DHT22;2160;51.172;6.808;2022-10-13T12:15:57;19.50;99.90
4293;DHT22;2160;51.172;6.808;2022-10-13T12:18:29;19.50;99.90
4293;DHT22;2160;51.172;6.808;2022-10-13T12:21:00;19.50;99.90
4293;DHT22;2160;51.172;6.808;2022-10-13T12:23:29;19.30;99.90
4293;DHT22;2160;51.172;6.808;2022-10-13T12:25:57;19.50;99.90
4293;DHT22;2160;51.172;6.808;2022-10-13T12:28:27;19.60;99.90
4293;DHT22;2160;51.172;6.808;2022-10-13T12:30:56;19.60;99.90
4293;DHT22;2160;51.172;6.808;2022-10-13T12:33:31;19.60;99.90
4293;DHT22;2160;51.172;6.808;2022-10-13T12:36:15;19.40;99.90
4293;DHT22;2160;51.172;6.808;2022-10-13T12:38:48;19.40;99.90
4293;DHT22;2160;51.172;6.808;2022-10-13T12:41:18;19.50;99.90
4293;DHT22;2160;51.172;6.808;2022-10-13T12:43:46;19.50;99.90
4293;DHT22;2160;51.172;6.808;2022-10-13T12:46:35;19.50;99.90
4293;DHT22;2160;51.172;6.808;2022-10-13T12:49:12;19.50;99.90
4293;DHT22;2160;51.172;6.808;2022-10-13T12:51:41;19.50;99.90
4293;DHT22;2160;51.172;6.808;2022-10-13T12:54:18;19.70;99.90
4293;DHT22;2160;51.172;6.808;2022-10-13T12:56:47;19.50;99.90
4293;DHT22;2160;51.172;6.808;2022-10-13T12:59:15;19.40;99.90
4293;DHT22;2160;51.172;6.808;2022-10-13T13:01:53;19.50;99.90
4293;DHT22;2160;51.172;6.808;2022-10-13T13:04:30;19.50;99.90
4293;DHT22;2160;51.172;6.808;2022-10-13T13:06:59;19.60;99.90
4293;DHT22;2160;51.172;6.808;2022-10-13T13:09:28;19.70;99.90
4293;DHT22;2160;51.172;6.808;2022-10-13T13:12:18;19.80;99.90
4293;DHT22;2160;51.172;6.808;2022-10-13T13:14:48;19.70;99.90
4293;DHT22;2160;51.172;6.808;2022-10-13T13:17:23;19.70;99.90
4293;DHT22;2160;51.172;6.808;2022-10-13T13:19:52;19.70;99.90
4293;DHT22;2160;51.172;6.808;2022-10-13T13:22:20;19.70;99.90
4293;DHT22;2160;51.172;6.808;2022-10-13T13:24:48;19.50;99.90
4293;DHT22;2160;51.172;6.808;2022-10-13T13:27:18;19.30;99.90
4293;DHT22;2160;51.172;6.808;2022-10-13T13:29:46;19.50;99.90
4293;DHT22;2160;51.172;6.808;2022-10-13T13:32:14;19.70;99.90
4293;DHT22;2160;51.172;6.808;2022-10-13T13:34:41;19.50;99.90
4293;DHT22;2160;51.172;6.808;2022-10-13T13:37:14;19.40;99.90
4293;DHT22;2160;51.172;6.808;2022-10-13T13:39:44;19.60;99.90
4293;DHT22;2160;51.172;6.808;2022-10-13T13:42:13;19.50;99.90
4293;DHT22;2160;51.172;6.808;2022-10-13T13:44:42;19.60;99.90
4293;DHT22;2160;51.172;6.808;2022-10-13T13:47:14;19.70;99.90
4293;DHT22;2160;51.172;6.808;2022-10-13T13:49:45;19.90;99.90
4293;DHT22;2160;51.172;6.808;2022-10-13T13:52:13;19.50;99.90
4293;DHT22;2160;51.172;6.808;2022-10-13T13:54:40;19.40;99.90
4293;DHT22;2160;51.172;6.808;2022-10-13T13:57:08;19.20;99.90
4293;DHT22;2160;51.172;6.808;2022-10-13T13:59:36;19.40;99.90
4293;DHT22;2160;51.172;6.808;2022-10-13T14:02:04;19.40;99.90
4293;DHT22;2160;51.172;6.808;2022-10-13T14:04:32;19.50;99.90
4293;DHT22;2160;51.172;6.808;2022-10-13T14:06:59;19.50;99.90
4293;DHT22;2160;51.172;6.808;2022-10-13T14:09:27;19.50;99.90
4293;DHT22;2160;51.172;6.808;2022-10-13T14:11:54;19.50;99.90
4293;DHT22;2160;51.172;6.808;2022-10-13T14:14:21;19.60;99.90
4293;DHT22;2160;51.172;6.808;2022-10-13T14:16:48;19.60;99.90
4293;DHT22;2160;51.172;6.808;2022-10-13T14:19:15;19.60;99.90
4293;DHT22;2160;51.172;6.808;2022-10-13T14:21:42;19.60;99.90
4293;DHT22;2160;51.172;6.808;2022-10-13T14:24:13;19.60;99.90
4293;DHT22;2160;51.172;6.808;2022-10-13T14:26:42;19.70;99.90
4293;DHT22;2160;51.172;6.808;2022-10-13T14:29:08;19.70;99.90
4293;DHT22;2160;51.172;6.808;2022-10-13T14:31:35;19.80;99.90
4293;DHT22;2160;51.172;6.808;2022-10-13T14:34:02;19.70;99.90
4293;DHT22;2160;51.172;6.808;2022-10-13T14:36:31;19.70;99.90
4293;DHT22;2160;51.172;6.808;2022-10-13T14:38:58;19.70;99.90
4293;DHT22;2160;51.172;6.808;2022-10-13T14:41:25;19.70;99.90
4293;DHT22;2160;51.172;6.808;2022-10-13T14:43:54;19.60;99.90
4293;DHT22;2160;51.172;6.808;2022-10-13T14:46:22;19.70;99.90
4293;DHT22;2160;51.172;6.808;2022-10-13T14:48:49;19.50;99.90
4293;DHT22;2160;51.172;6.808;2022-10-13T14:51:16;19.50;99.90
4293;DHT22;2160;51.172;6.808;2022-10-13T14:53:44;19.60;99.90
4293;DHT22;2160;51.172;6.808;2022-10-13T14:56:16;19.70;99.90
4293;DHT22;2160;51.172;6.808;2022-10-13T14:58:49;19.60;99.90
4293;DHT22;2160;51.172;6.808;2022-10-13T15:01:18;19.60;99.90
4293;DHT22;2160;51.172;6.808;2022-10-13T15:03:46;19.60;99.90
4293;DHT22;2160;51.172;6.808;2022-10-13T15:06:14;19.70;99.90
4293;DHT22;2160;51.172;6.808;2022-10-13T15:08:42;19.60;99.90
4293;DHT22;2160;51.172;6.808;2022-10-13T15:11:09;19.60;99.90
4293;DHT22;2160;51.172;6.808;2022-10-13T15:13:37;19.60;99.90
4293;DHT22;2160;51.172;6.808;2022-10-13T15:16:04;19.50;99.90
4293;DHT22;2160;51.172;6.808;2022-10-13T15:18:33;19.50;99.90
4293;DHT22;2160;51.172;6.808;2022-10-13T15:21:01;19.40;99.90
4293;DHT22;2160;51.172;6.808;2022-10-13T15:23:28;19.60;99.90
4293;DHT22;2160;51.172;6.808;2022-10-13T15:25:56;19.40;99.90
4293;DHT22;2160;51.172;6.808;2022-10-13T15:28:24;19.20;99.90
4293;DHT22;2160;51.172;6.808;2022-10-13T15:30:52;19.10;99.90
4293;DHT22;2160;51.172;6.808;2022-10-13T15:33:20;19.10;99.90
4293;DHT22;2160;51.172;6.808;2022-10-13T15:35:49;19.10;99.90
4293;DHT22;2160;51.172;6.808;2022-10-13T15:38:18;19.10;99.90
4293;DHT22;2160;51.172;6.808;2022-10-13T15:40:45;19.00;99.90
4293;DHT22;2160;51.172;6.808;2022-10-13T15:43:13;18.90;99.90
4293;DHT22;2160;51.172;6.808;2022-10-13T15:45:40;18.90;99.90
4293;DHT22;2160;51.172;6.808;2022-10-13T15:48:09;19.00;99.90
4293;DHT22;2160;51.172;6.808;2022-10-13T15:50:38;19.10;99.90
4293;DHT22;2160;51.172;6.808;2022-10-13T15:53:07;19.10;99.90
4293;DHT22;2160;51.172;6.808;2022-10-13T15:55:34;19.00;99.90
4293;DHT22;2160;51.172;6.808;2022-10-13T15:58:01;19.10;99.90
4293;DHT22;2160;51.172;6.808;2022-10-13T16:00:27;19.10;99.90
4293;DHT22;2160;51.172;6.808;2022-10-13T16:02:54;19.20;99.90
4293;DHT22;2160;51.172;6.808;2022-10-13T16:05:21;19.10;99.90
4293;DHT22;2160;51.172;6.808;2022-10-13T16:07:48;19.10;99.90
4293;DHT22;2160;51.172;6.808;2022-10-13T16:10:17;19.10;99.90
4293;DHT22;2160;51.172;6.808;2022-10-13T16:12:44;19.30;99.90
4293;DHT22;2160;51.172;6.808;2022-10-13T16:15:10;19.00;99.90
4293;DHT22;2160;51.172;6.808;2022-10-13T16:17:38;18.90;99.90
4293;DHT22;2160;51.172;6.808;2022-10-13T16:20:06;19.10;99.90
4293;DHT22;2160;51.172;6.808;2022-10-13T16:22:33;18.90;99.90
4293;DHT22;2160;51.172;6.808;2022-10-13T16:25:00;18.90;99.90
4293;DHT22;2160;51.172;6.808;2022-10-13T16:27:28;19.10;99.90
4293;DHT22;2160;51.172;6.808;2022-10-13T16:29:55;18.90;99.90
4293;DHT22;2160;51.172;6.808;2022-10-13T16:32:22;19.00;99.90
4293;DHT22;2160;51.172;6.808;2022-10-13T16:34:49;19.00;99.90
4293;DHT22;2160;51.172;6.808;2022-10-13T16:37:18;19.00;99.90
4293;DHT22;2160;51.172;6.808;2022-10-13T16:39:44;18.90;99.90
4293;DHT22;2160;51.172;6.808;2022-10-13T16:42:11;18.90;99.90
4293;DHT22;2160;51.172;6.808;2022-10-13T16:44:40;18.90;99.90
4293;DHT22;2160;51.172;6.808;2022-10-13T16:47:06;18.80;99.90
4293;DHT22;2160;51.172;6.808;2022-10-13T16:49:33;18.60;99.90
4293;DHT22;2160;51.172;6.808;2022-10-13T16:52:01;18.60;99.90
4293;DHT22;2160;51.172;6.808;2022-10-13T16:54:28;18.50;99.90
4293;DHT22;2160;51.172;6.808;2022-10-13T16:56:59;18.40;99.90
4293;DHT22;2160;51.172;6.808;2022-10-13T16:59:26;18.30;99.90
4293;DHT22;2160;51.172;6.808;2022-10-13T17:01:54;18.50;99.90
4293;DHT22;2160;51.172;6.808;2022-10-13T17:04:22;18.60;99.90
4293;DHT22;2160;51.172;6.808;2022-10-13T17:06:49;18.60;99.90
4293;DHT22;2160;51.172;6.808;2022-10-13T17:09:16;18.80;99.90
4293;DHT22;2160;51.172;6.808;2022-10-13T17:11:44;18.70;99.90
4293;DHT22;2160;51.172;6.808;2022-10-13T17:14:11;18.60;99.90
4293;DHT22;2160;51.172;6.808;2022-10-13T17:16:38;18.60;99.90
4293;DHT22;2160;51.172;6.808;2022-10-13T17:19:06;18.60;99.90
4293;DHT22;2160;51.172;6.808;2022-10-13T17:21:34;18.60;99.90
4293;DHT22;2160;51.172;6.808;2022-10-13T17:24:03;18.60;99.90
4293;DHT22;2160;51.172;6.808;2022-10-13T17:26:32;18.60;99.90
4293;DHT22;2160;51.172;6.808;2022-10-13T17:28:59;18.60;99.90
4293;DHT22;2160;51.172;6.808;2022-10-13T17:31:26;18.60;99.90
4293;DHT22;2160;51.172;6.808;2022-10-13T17:33:53;18.70;99.90
4293;DHT22;2160;51.172;6.808;2022-10-13T17:36:24;18.50;99.90
4293;DHT22;2160;51.172;6.808;2022-10-13T17:38:52;18.50;99.90
4293;DHT22;2160;51.172;6.808;2022-10-13T17:41:20;18.40;99.90
4293;DHT22;2160;51.172;6.808;2022-10-13T17:43:48;18.50;99.90
4293;DHT22;2160;51.172;6.808;2022-10-13T17:46:17;18.40;99.90
4293;DHT22;2160;51.172;6.808;2022-10-13T17:48:47;18.30;99.90
4293;DHT22;2160;51.172;6.808;2022-10-13T17:51:16;18.20;99.90
4293;DHT22;2160;51.172;6.808;2022-10-13T17:53:47;17.90;99.90
4293;DHT22;2160;51.172;6.808;2022-10-13T17:56:16;18.00;99.90
4293;DHT22;2160;51.172;6.808;2022-10-13T17:58:43;17.90;99.90
4293;DHT22;2160;51.172;6.808;2022-10-13T18:01:13;17.90;99.90
4293;DHT22;2160;51.172;6.808;2022-10-13T18:03:42;17.90;99.90
4293;DHT22;2160;51.172;6.808;2022-10-13T18:06:10;17.70;99.90
4293;DHT22;2160;51.172;6.808;2022-10-13T18:08:37;17.90;99.90
4293;DHT22;2160;51.172;6.808;2022-10-13T18:11:06;17.80;99.90
4293;DHT22;2160;51.172;6.808;2022-10-13T18:13:33;17.80;99.90
4293;DHT22;2160;51.172;6.808;2022-10-13T18:16:03;17.90;99.90
4293;DHT22;2160;51.172;6.808;2022-10-13T18:18:30;18.00;99.90
4293;DHT22;2160;51.172;6.808;2022-10-13T18:20:59;18.00;99.90
4293;DHT22;2160;51.172;6.808;2022-10-13T18:23:29;18.10;99.90
4293;DHT22;2160;51.172;6.808;2022-10-13T18:25:59;18.10;99.90
4293;DHT22;2160;51.172;6.808;2022-10-13T18:28:29;18.00;99.90
4293;DHT22;2160;51.172;6.808;2022-10-13T18:31:01;18.00;99.90
4293;DHT22;2160;51.172;6.808;2022-10-13T18:33:29;18.00;99.90
4293;DHT22;2160;51.172;6.808;2022-10-13T18:35:55;18.10;99.90
4293;DHT22;2160;51.172;6.808;2022-10-13T18:38:22;18.00;99.90
4293;DHT22;2160;51.172;6.808;2022-10-13T18:40:49;18.00;99.90
4293;DHT22;2160;51.172;6.808;2022-10-13T18:43:16;18.00;99.90
4293;DHT22;2160;51.172;6.808;2022-10-13T18:45:45;18.00;99.90
4293;DHT22;2160;51.172;6.808;2022-10-13T18:48:11;18.00;99.90
4293;DHT22;2160;51.172;6.808;2022-10-13T18:50:38;18.20;99.90
4293;DHT22;2160;51.172;6.808;2022-10-13T18:53:05;18.10;99.90
4293;DHT22;2160;51.172;6.808;2022-10-13T18:55:32;18.00;99.90
4293;DHT22;2160;51.172;6.808;2022-10-13T18:58:00;18.00;99.90
4293;DHT22;2160;51.172;6.808;2022-10-13T19:00:27;17.70;99.90
4293;DHT22;2160;51.172;6.808;2022-10-13T19:02:56;17.40;99.90
4293;DHT22;2160;51.172;6.808;2022-10-13T19:05:22;17.60;99.90
4293;DHT22;2160;51.172;6.808;2022-10-13T19:07:55;17.60;99.90
4293;DHT22;2160;51.172;6.808;2022-10-13T19:10:22;17.40;99.90
4293;DHT22;2160;51.172;6.808;2022-10-13T19:12:49;17.50;99.90
4293;DHT22;2160;51.172;6.808;2022-10-13T19:15:19;17.50;99.90
4293;DHT22;2160;51.172;6.808;2022-10-13T19:17:48;17.60;99.90
4293;DHT22;2160;51.172;6.808;2022-10-13T19:20:17;17.60;99.90
4293;DHT22;2160;51.172;6.808;2022-10-13T19:22:44;17.50;99.90
4293;DHT22;2160;51.172;6.808;2022-10-13T19:25:14;17.50;99.90
4293;DHT22;2160;51.172;6.808;2022-10-13T19:27:41;17.50;99.90
4293;DHT22;2160;51.172;6.808;2022-10-13T19:30:09;17.50;99.90
4293;DHT22;2160;51.172;6.808;2022-10-13T19:32:37;17.50;99.90
4293;DHT22;2160;51.172;6.808;2022-10-13T19:35:04;17.70;99.90
4293;DHT22;2160;51.172;6.808;2022-10-13T19:37:33;17.70;99.90
4293;DHT22;2160;51.172;6.808;2022-10-13T19:39:59;17.90;99.90
4293;DHT22;2160;51.172;6.808;2022-10-13T19:42:28;17.60;99.90
4293;DHT22;2160;51.172;6.808;2022-10-13T19:44:56;17.50;99.90
4293;DHT22;2160;51.172;6.808;2022-10-13T19:47:23;17.40;99.90
4293;DHT22;2160;51.172;6.808;2022-10-13T19:49:50;17.50;99.90
4293;DHT22;2160;51.172;6.808;2022-10-13T19:52:17;17.50;99.90
4293;DHT22;2160;51.172;6.808;2022-10-13T19:54:45;17.60;99.90
4293;DHT22;2160;51.172;6.808;2022-10-13T19:57:12;17.60;99.90
4293;DHT22;2160;51.172;6.808;2022-10-13T19:59:39;17.60;99.90
4293;DHT22;2160;51.172;6.808;2022-10-13T20:02:06;17.70;99.90
4293;DHT22;2160;51.172;6.808;2022-10-13T20:04:33;17.50;99.90
4293;DHT22;2160;51.172;6.808;2022-10-13T20:07:00;17.40;99.90
4293;DHT22;2160;51.172;6.808;2022-10-13T20:09:27;17.60;99.90
4293;DHT22;2160;51.172;6.808;2022-10-13T20:11:55;17.60;99.90
4293;DHT22;2160;51.172;6.808;2022-10-13T20:14:22;17.30;99.90
4293;DHT22;2160;51.172;6.808;2022-10-13T20:16:49;17.30;99.90
4293;DHT22;2160;51.172;6.808;2022-10-13T20:19:18;17.20;99.90
4293;DHT22;2160;51.172;6.808;2022-10-13T20:21:46;17.20;99.90
4293;DHT22;2160;51.172;6.808;2022-10-13T20:24:16;17.30;99.90
4293;DHT22;2160;51.172;6.808;2022-10-13T20:26:43;17.10;99.90
4293;DHT22;2160;51.172;6.808;2022-10-13T20:29:11;17.40;99.90